Plant City, FL (33565)

3:33 PM EST on December 22, 2014 (GMT -0500)
Bull's Back Yard | Change Station
CLOSE
Current Station
Personal Weather Station
Location: North of Plant City, FL
Elevation: 138 ft
Nearby Weather Stations

Elev 138 ft 28.11 °N, 82.15 °W | Updated 13 seconds ago

Overcast
Overcast
79.5 °F
Feels Like 85 °F
N
2.2
Wind Variable Wind from SSW
Gusts 3.8 mph

Today
High -- | Low -- °F
--% Chance of Precip.
Yesterday
High -- | Low -- °F
Precip. -- in
7:16 AM 5:38 PM
New Moon, 1% visible
Pressure 29.93 in
Visibility 10.0 miles
Clouds Scattered Clouds 2700 ft
Scattered Clouds 3200 ft
Overcast 5000 ft
Heat Index 85 °F
Dew Point 78 °F
Humidity 94%
Rainfall 0.02 in
Snow Depth Not available.
UV 1 out of 12
Pollen .70 out of 12
Air Quality Not available.
Flu Activity Not available.
METAR KPCM 222015Z AUTO 22010G15KT 10SM SCT027 SCT032 OVC050 28/19 A2993 RMK AO2

More Conditions Fewer Conditions

Pressure 29.93 in
Visibility 10.0 miles
Clouds Scattered Clouds 2700 ft
Scattered Clouds 3200 ft
Overcast 5000 ft
Heat Index 85 °F
Dew Point 78 °F
Humidity 94%
Rainfall 0.02 in
Snow Depth Not available.
UV 1 out of 12
Pollen .70 out of 12
Air Quality Not available.
Flu Activity Not available.
METAR KPCM 222015Z AUTO 22010G15KT 10SM SCT027 SCT032 OVC050 28/19 A2993 RMK AO2

More Conditions Fewer Conditions

10-Day Weather Forecast

Almanac

Astronomy

Dec. 22, 2014 Rise Set
Actual Time
Civil Twilight
Nautical Twilight
Astronomical Twilight
Moon
Length of Visible Light
Length of Day
Tomorrow will be .
, % of the Moon is Illuminated

Today's Extremes

State Highs State Lows

Community

WunderPhotos

Upload Photos

1,779,680 photos uploaded!

WunderBlogs® & News

Nearby

Air Quality

  Air Quality AQ Index Pollutant
Not available.

Snow Depth

Station Depth Elevation

Earthquake Activity

City Distance Mag. Time & Date
Minimum magnitude displayed is 2.5.

Coastal Water Temperatures

Place Temperature

Nearby Weather Stations